x

Lake Winnipeg S. Basin (45140) Wave Buoy

4:00pm - Fri 4th Sep 2015 All times are UTC.

  • Sig Wave height 1.3ft
  • Peak Period 18s
  • Wind
    11mph, 13mph gusts
  • Air Temp 70°f
  • Sea Pressure 1009.9mb

More Historic Weather Station data

Upgrade to MSW Pro to gain access to the past 30 days of data for over 8000 Wavebouys and Weather Stations around the globe.

Join Pro

Comparision Forecast

View Surf forecast
   
Fri 09/04 4:00pm 1.3ft 18s 11 13 mph 1009.9mb 70f
10:00am 2.5ft 18s 18 22 mph 1007.2mb 71f
9:00am 2.5ft 16s 18 22 mph 1008.4mb 74f
8:00am  -   -  16
mph
1007.7mb 72f
6:00am 2ft 20s 16 18 mph 1006.9mb 73f
4:00am 1.3ft 21s 11 13 mph 1006.5mb 73f
3:00am 1.6ft 20s 13
mph
1006.7mb 73f
2:00am 1.6ft 21s 18 20 mph 1006.1mb 74f
1:00am 1.3ft 21s 13 16 mph 1006.1mb 74f
12:00am 1.6ft 21s 13
mph
1006.1mb 74f
Thu 09/03 10:00pm 1.3ft 21s 9 11 mph 1006.5mb 74f
8:00pm 1.3ft 21s 9 11 mph 1006.7mb 73f
7:00pm 0.7ft 20s 11
mph
1007.5mb 73f
6:00pm 1ft 21s 9 11 mph 1008.2mb 72f
5:00pm 1.3ft 21s 9
mph
1008.5mb 70f
3:00pm 2ft 21s 13 18 mph 1008.8mb 70f
2:00pm 2ft 21s 13 18 mph 1008.8mb 70f
1:00pm 2.5ft 20s 11 16 mph 1008.8mb 69f
12:00pm 2ft 21s 16 20 mph 1008.6mb 70f
11:00am 2ft 21s 11 16 mph 1008.7mb 70f
9:00am 2.5ft 20s 16 18 mph 1007.8mb 71f
8:00am 2.5ft 18s 18 20 mph 1007.8mb 72f
6:00am 2ft 17s 16 18 mph 1008.2mb 73f
5:00am 2ft 21s 16 18 mph 1007.9mb 74f
4:00am 1.3ft 17s 16 18 mph 1007.8mb 75f
3:00am 1ft 20s 13
mph
1007.8mb 75f
2:00am 0.7ft 2s 11 13 mph 1007.9mb 76f
1:00am 0.3ft 2s 11 13 mph 1007.9mb 76f
12:00am 0.3ft 2s 9 11 mph 1007.7mb 76f
Wed 09/02 11:00pm 0.3ft 2s 9
mph
1007.6mb 75f
10:00pm 0.3ft 2s 9 11 mph 1008.1mb 77f
9:00pm 0.3ft 2s 7 9 mph 1008.2mb 76f
8:00pm 0.3ft 2s 7 9 mph 1008.3mb 76f
7:00pm 0.7ft 3s 4
mph
1008.7mb 73f
6:00pm 1ft 21s 7 9 mph 1008.7mb 72f
5:00pm 1.3ft 20s 9 11 mph 1008.8mb 71f
4:00pm 1.6ft 21s 11 13 mph 1008.9mb 69f
3:00pm 2ft 21s 11 13 mph 1009mb 68f
2:00pm  -   -  13
mph
- -
1:00pm 2.5ft 20s 16 18 mph 1009.2mb 68f
12:00pm 2.5ft 20s 13 18 mph 1009mb 68f
11:00am 2.5ft 21s 18 20 mph 1008.9mb 68f
10:00am 2ft 20s 18 20 mph 1008.6mb 69f
9:00am 2.5ft 20s 18 20 mph 1008.5mb 69f
8:00am 2ft 21s 16 18 mph 1008.5mb 69f
7:00am 2ft 21s 13 16 mph 1008.6mb 69f
5:00am 2ft 21s 13 16 mph 1008.8mb 70f
4:00am 1.6ft 21s 16 20 mph 1008.6mb 72f
3:00am 0.7ft 21s 11 13 mph 1008.5mb 72f
2:00am 0.7ft 21s 13
mph
1008.4mb 72f
1:00am 1ft 21s 9 11 mph 1008.1mb 73f
12:00am 1.3ft 20s 9 11 mph 1008.3mb 73f
Tue 09/01 11:00pm 1.3ft 21s 11 13 mph 1008.3mb 73f
10:00pm 1.3ft 20s 11 13 mph 1008.4mb 73f
9:00pm 1.3ft 21s 11 13 mph 1008.5mb 72f
8:00pm 1.6ft 18s 11 13 mph 1008.7mb 71f
7:00pm 2ft 21s 11 13 mph 1009mb 69f
6:00pm 2ft 21s 13 16 mph 1008.8mb 68f
5:00pm 2ft 21s 13 18 mph 1009.1mb 67f
4:00pm  -   -  16
mph
1009.1mb 65f
3:00pm 2ft 21s 16 18 mph 1008.9mb 65f
1:00pm 2.5ft 16s 13 16 mph 1008.7mb 64f
12:00pm 2ft 21s 13 16 mph 1008.5mb 64f
11:00am 2ft 21s 13 18 mph 1008.1mb 65f
10:00am 2ft 18s 16 18 mph 1007.7mb 65f
9:00am 2ft 21s 16 18 mph 1007.5mb 66f
8:00am 2ft 20s 16 18 mph 1007.5mb 66f
7:00am 2ft 20s 13 18 mph 1007.4mb 68f
6:00am 2ft 21s 13 16 mph 1007.3mb 68f
5:00am 2ft 21s 13 18 mph 1006.9mb 68f
4:00am 2ft 21s 13 18 mph 1006.5mb 68f
2:00am 1.3ft 21s 11 13 mph 1006.4mb 70f
1:00am 1.3ft 21s 11 13 mph 1005.8mb 71f
12:00am 2ft 18s 9 11 mph 1005.6mb 71f
Mon 08/31 11:00pm 2.5ft 20s 16 18 mph 1005.3mb 72f
10:00pm 2.5ft 18s 18 20 mph 1005.3mb 72f
9:00pm 2ft 20s 16 20 mph 1004.8mb 71f
7:00pm 1.3ft 21s 13 18 mph 1004.6mb 67f
6:00pm 1.3ft 20s 9 16 mph 1004.8mb 67f